sensor_id;sensor_type;location;lat;lon;timestamp;P1;durP1;ratioP1;P2;durP2;ratioP2
6679;SDS011;3376;42.664;23.346;2023-04-03T00:01:34;7.57;;;6.87;;
6679;SDS011;3376;42.664;23.346;2023-04-03T00:04:03;6.93;;;6.37;;
6679;SDS011;3376;42.664;23.346;2023-04-03T00:06:30;6.43;;;5.87;;
6679;SDS011;3376;42.664;23.346;2023-04-03T00:08:57;6.20;;;5.70;;
6679;SDS011;3376;42.664;23.346;2023-04-03T00:11:26;8.57;;;7.37;;
6679;SDS011;3376;42.664;23.346;2023-04-03T00:13:53;7.87;;;7.23;;
6679;SDS011;3376;42.664;23.346;2023-04-03T00:16:20;8.53;;;7.73;;
6679;SDS011;3376;42.664;23.346;2023-04-03T00:18:46;6.90;;;6.40;;
6679;SDS011;3376;42.664;23.346;2023-04-03T00:21:13;7.13;;;6.53;;
6679;SDS011;3376;42.664;23.346;2023-04-03T00:23:40;6.60;;;6.00;;
6679;SDS011;3376;42.664;23.346;2023-04-03T00:26:07;6.73;;;6.00;;
6679;SDS011;3376;42.664;23.346;2023-04-03T00:28:35;6.67;;;6.27;;
6679;SDS011;3376;42.664;23.346;2023-04-03T00:31:02;7.27;;;6.00;;
6679;SDS011;3376;42.664;23.346;2023-04-03T00:33:29;6.50;;;6.00;;
6679;SDS011;3376;42.664;23.346;2023-04-03T00:35:56;5.43;;;4.30;;
6679;SDS011;3376;42.664;23.346;2023-04-03T00:38:23;4.73;;;3.87;;
6679;SDS011;3376;42.664;23.346;2023-04-03T00:40:49;4.40;;;4.13;;
6679;SDS011;3376;42.664;23.346;2023-04-03T00:43:17;11.90;;;5.93;;
6679;SDS011;3376;42.664;23.346;2023-04-03T00:45:48;5.93;;;5.40;;
6679;SDS011;3376;42.664;23.346;2023-04-03T00:48:17;3.53;;;3.23;;
6679;SDS011;3376;42.664;23.346;2023-04-03T00:50:46;3.90;;;3.63;;
6679;SDS011;3376;42.664;23.346;2023-04-03T00:53:17;19.87;;;15.77;;
6679;SDS011;3376;42.664;23.346;2023-04-03T00:55:46;16.70;;;12.47;;
6679;SDS011;3376;42.664;23.346;2023-04-03T00:58:15;8.20;;;7.00;;
6679;SDS011;3376;42.664;23.346;2023-04-03T01:00:44;4.40;;;4.10;;
6679;SDS011;3376;42.664;23.346;2023-04-03T01:03:21;4.63;;;4.37;;
6679;SDS011;3376;42.664;23.346;2023-04-03T01:05:48;6.07;;;5.40;;
6679;SDS011;3376;42.664;23.346;2023-04-03T01:08:15;6.73;;;6.33;;
6679;SDS011;3376;42.664;23.346;2023-04-03T01:10:42;7.50;;;6.00;;
6679;SDS011;3376;42.664;23.346;2023-04-03T01:13:20;7.87;;;5.30;;
6679;SDS011;3376;42.664;23.346;2023-04-03T01:15:50;7.50;;;6.23;;
6679;SDS011;3376;42.664;23.346;2023-04-03T01:18:17;7.17;;;6.60;;
6679;SDS011;3376;42.664;23.346;2023-04-03T01:24:01;5.67;;;4.83;;
6679;SDS011;3376;42.664;23.346;2023-04-03T01:26:38;5.50;;;5.10;;
6679;SDS011;3376;42.664;23.346;2023-04-03T01:29:05;7.13;;;5.23;;
6679;SDS011;3376;42.664;23.346;2023-04-03T01:31:41;6.30;;;5.80;;
6679;SDS011;3376;42.664;23.346;2023-04-03T01:34:11;8.57;;;5.17;;
6679;SDS011;3376;42.664;23.346;2023-04-03T01:36:38;6.43;;;5.33;;
6679;SDS011;3376;42.664;23.346;2023-04-03T01:39:05;5.17;;;4.73;;
6679;SDS011;3376;42.664;23.346;2023-04-03T01:41:31;4.83;;;4.43;;
6679;SDS011;3376;42.664;23.346;2023-04-03T01:43:58;4.10;;;3.80;;
6679;SDS011;3376;42.664;23.346;2023-04-03T01:46:25;4.70;;;3.60;;
6679;SDS011;3376;42.664;23.346;2023-04-03T01:48:53;5.13;;;4.10;;
6679;SDS011;3376;42.664;23.346;2023-04-03T01:51:20;5.03;;;4.57;;
6679;SDS011;3376;42.664;23.346;2023-04-03T01:53:47;4.57;;;4.17;;
6679;SDS011;3376;42.664;23.346;2023-04-03T01:56:14;4.43;;;4.13;;
6679;SDS011;3376;42.664;23.346;2023-04-03T01:58:40;4.10;;;3.80;;
6679;SDS011;3376;42.664;23.346;2023-04-03T02:01:07;7.27;;;4.03;;
6679;SDS011;3376;42.664;23.346;2023-04-03T02:03:34;5.27;;;4.23;;
6679;SDS011;3376;42.664;23.346;2023-04-03T02:06:03;6.10;;;5.50;;
6679;SDS011;3376;42.664;23.346;2023-04-03T02:08:30;6.03;;;5.40;;
6679;SDS011;3376;42.664;23.346;2023-04-03T02:10:57;7.50;;;5.63;;
6679;SDS011;3376;42.664;23.346;2023-04-03T02:13:23;5.80;;;5.20;;
6679;SDS011;3376;42.664;23.346;2023-04-03T02:15:50;6.80;;;6.30;;
6679;SDS011;3376;42.664;23.346;2023-04-03T02:18:17;6.07;;;5.60;;
6679;SDS011;3376;42.664;23.346;2023-04-03T02:20:44;8.23;;;6.57;;
6679;SDS011;3376;42.664;23.346;2023-04-03T02:23:13;9.17;;;6.57;;
6679;SDS011;3376;42.664;23.346;2023-04-03T02:25:40;7.73;;;6.60;;
6679;SDS011;3376;42.664;23.346;2023-04-03T02:28:07;12.40;;;7.50;;
6679;SDS011;3376;42.664;23.346;2023-04-03T02:30:34;8.33;;;7.50;;
6679;SDS011;3376;42.664;23.346;2023-04-03T02:33:00;8.10;;;7.43;;
6679;SDS011;3376;42.664;23.346;2023-04-03T02:35:27;8.90;;;7.57;;
6679;SDS011;3376;42.664;23.346;2023-04-03T02:37:54;8.07;;;7.50;;
6679;SDS011;3376;42.664;23.346;2023-04-03T02:40:22;7.27;;;6.63;;
6679;SDS011;3376;42.664;23.346;2023-04-03T02:42:49;8.43;;;6.50;;
6679;SDS011;3376;42.664;23.346;2023-04-03T02:45:16;7.10;;;6.43;;
6679;SDS011;3376;42.664;23.346;2023-04-03T02:47:43;7.03;;;6.53;;
6679;SDS011;3376;42.664;23.346;2023-04-03T02:50:10;6.33;;;5.83;;
6679;SDS011;3376;42.664;23.346;2023-04-03T02:52:36;7.23;;;6.57;;
6679;SDS011;3376;42.664;23.346;2023-04-03T02:55:03;6.90;;;6.40;;
6679;SDS011;3376;42.664;23.346;2023-04-03T02:57:32;8.70;;;7.90;;
6679;SDS011;3376;42.664;23.346;2023-04-03T02:59:59;10.33;;;7.27;;
6679;SDS011;3376;42.664;23.346;2023-04-03T03:02:26;7.80;;;7.17;;
6679;SDS011;3376;42.664;23.346;2023-04-03T03:04:52;8.37;;;7.70;;
6679;SDS011;3376;42.664;23.346;2023-04-03T03:07:19;8.17;;;7.43;;
6679;SDS011;3376;42.664;23.346;2023-04-03T03:09:46;9.73;;;8.67;;
6679;SDS011;3376;42.664;23.346;2023-04-03T03:12:12;11.47;;;10.50;;
6679;SDS011;3376;42.664;23.346;2023-04-03T03:14:41;11.10;;;9.00;;
6679;SDS011;3376;42.664;23.346;2023-04-03T03:17:07;6.60;;;6.10;;
6679;SDS011;3376;42.664;23.346;2023-04-03T03:19:34;12.37;;;8.33;;
6679;SDS011;3376;42.664;23.346;2023-04-03T03:22:01;14.00;;;10.83;;
6679;SDS011;3376;42.664;23.346;2023-04-03T03:24:28;10.37;;;9.50;;
6679;SDS011;3376;42.664;23.346;2023-04-03T03:26:54;10.57;;;9.70;;
6679;SDS011;3376;42.664;23.346;2023-04-03T03:29:21;8.17;;;7.37;;
6679;SDS011;3376;42.664;23.346;2023-04-03T03:31:50;11.00;;;10.00;;
6679;SDS011;3376;42.664;23.346;2023-04-03T03:34:16;12.03;;;8.97;;
6679;SDS011;3376;42.664;23.346;2023-04-03T03:36:43;10.17;;;8.80;;
6679;SDS011;3376;42.664;23.346;2023-04-03T03:39:10;12.10;;;9.70;;
6679;SDS011;3376;42.664;23.346;2023-04-03T03:41:37;13.20;;;9.20;;
6679;SDS011;3376;42.664;23.346;2023-04-03T03:44:04;8.77;;;7.60;;
6679;SDS011;3376;42.664;23.346;2023-04-03T03:46:30;11.63;;;10.50;;
6679;SDS011;3376;42.664;23.346;2023-04-03T03:48:58;16.43;;;11.27;;
6679;SDS011;3376;42.664;23.346;2023-04-03T03:51:25;13.53;;;11.77;;
6679;SDS011;3376;42.664;23.346;2023-04-03T03:53:52;16.13;;;12.03;;
6679;SDS011;3376;42.664;23.346;2023-04-03T03:56:19;10.77;;;8.83;;
6679;SDS011;3376;42.664;23.346;2023-04-03T03:58:46;11.50;;;8.83;;
6679;SDS011;3376;42.664;23.346;2023-04-03T04:01:14;9.43;;;8.33;;
6679;SDS011;3376;42.664;23.346;2023-04-03T04:03:41;11.70;;;9.87;;
6679;SDS011;3376;42.664;23.346;2023-04-03T04:06:10;11.13;;;8.80;;
6679;SDS011;3376;42.664;23.346;2023-04-03T04:08:36;8.87;;;8.03;;
6679;SDS011;3376;42.664;23.346;2023-04-03T04:11:03;14.60;;;10.27;;
6679;SDS011;3376;42.664;23.346;2023-04-03T04:13:30;28.17;;;14.63;;
6679;SDS011;3376;42.664;23.346;2023-04-03T04:15:57;12.77;;;11.43;;
6679;SDS011;3376;42.664;23.346;2023-04-03T04:18:24;9.70;;;8.73;;
6679;SDS011;3376;42.664;23.346;2023-04-03T04:20:51;9.10;;;8.37;;
6679;SDS011;3376;42.664;23.346;2023-04-03T04:23:19;9.20;;;8.30;;
6679;SDS011;3376;42.664;23.346;2023-04-03T04:25:46;9.93;;;9.10;;
6679;SDS011;3376;42.664;23.346;2023-04-03T04:28:13;16.60;;;9.30;;
6679;SDS011;3376;42.664;23.346;2023-04-03T04:30:40;14.53;;;12.77;;
6679;SDS011;3376;42.664;23.346;2023-04-03T04:33:07;24.27;;;15.70;;
6679;SDS011;3376;42.664;23.346;2023-04-03T04:35:35;21.63;;;17.13;;
6679;SDS011;3376;42.664;23.346;2023-04-03T04:38:01;20.10;;;17.30;;
6679;SDS011;3376;42.664;23.346;2023-04-03T04:40:30;24.40;;;17.37;;
6679;SDS011;3376;42.664;23.346;2023-04-03T04:42:56;18.40;;;13.93;;
6679;SDS011;3376;42.664;23.346;2023-04-03T04:45:23;23.70;;;13.47;;
6679;SDS011;3376;42.664;23.346;2023-04-03T04:47:50;30.97;;;15.40;;
6679;SDS011;3376;42.664;23.346;2023-04-03T04:50:18;27.47;;;15.37;;
6679;SDS011;3376;42.664;23.346;2023-04-03T04:52:45;29.07;;;15.13;;
6679;SDS011;3376;42.664;23.346;2023-04-03T04:55:11;22.17;;;14.20;;
6679;SDS011;3376;42.664;23.346;2023-04-03T04:57:39;21.27;;;12.27;;
6679;SDS011;3376;42.664;23.346;2023-04-03T05:00:07;20.53;;;13.40;;
6679;SDS011;3376;42.664;23.346;2023-04-03T05:02:34;28.40;;;17.80;;
6679;SDS011;3376;42.664;23.346;2023-04-03T05:05:01;24.00;;;17.70;;
6679;SDS011;3376;42.664;23.346;2023-04-03T05:07:28;27.53;;;19.47;;
6679;SDS011;3376;42.664;23.346;2023-04-03T05:09:55;41.00;;;30.23;;
6679;SDS011;3376;42.664;23.346;2023-04-03T05:12:21;25.10;;;19.77;;
6679;SDS011;3376;42.664;23.346;2023-04-03T05:14:50;40.70;;;23.97;;
6679;SDS011;3376;42.664;23.346;2023-04-03T05:17:16;36.63;;;24.77;;
6679;SDS011;3376;42.664;23.346;2023-04-03T05:19:43;34.67;;;21.73;;
6679;SDS011;3376;42.664;23.346;2023-04-03T05:22:10;20.77;;;16.77;;
6679;SDS011;3376;42.664;23.346;2023-04-03T05:24:37;39.83;;;25.33;;
6679;SDS011;3376;42.664;23.346;2023-04-03T05:27:04;38.23;;;28.57;;
6679;SDS011;3376;42.664;23.346;2023-04-03T05:29:30;56.00;;;34.60;;
6679;SDS011;3376;42.664;23.346;2023-04-03T05:31:59;43.53;;;24.30;;
6679;SDS011;3376;42.664;23.346;2023-04-03T05:34:25;44.97;;;27.60;;
6679;SDS011;3376;42.664;23.346;2023-04-03T05:36:53;45.83;;;24.33;;
6679;SDS011;3376;42.664;23.346;2023-04-03T05:39:19;50.47;;;23.80;;
6679;SDS011;3376;42.664;23.346;2023-04-03T05:41:47;34.73;;;21.27;;
6679;SDS011;3376;42.664;23.346;2023-04-03T05:44:14;39.90;;;20.60;;
6679;SDS011;3376;42.664;23.346;2023-04-03T05:46:41;34.93;;;25.60;;
6679;SDS011;3376;42.664;23.346;2023-04-03T05:49:09;44.97;;;28.00;;
6679;SDS011;3376;42.664;23.346;2023-04-03T05:51:37;58.07;;;27.87;;
6679;SDS011;3376;42.664;23.346;2023-04-03T05:54:06;34.23;;;21.83;;
6679;SDS011;3376;42.664;23.346;2023-04-03T05:56:36;44.17;;;20.07;;
6679;SDS011;3376;42.664;23.346;2023-04-03T05:59:02;33.27;;;18.60;;
6679;SDS011;3376;42.664;23.346;2023-04-03T06:01:29;28.20;;;14.70;;
6679;SDS011;3376;42.664;23.346;2023-04-03T06:03:56;29.83;;;13.27;;
6679;SDS011;3376;42.664;23.346;2023-04-03T06:06:25;17.87;;;9.53;;
6679;SDS011;3376;42.664;23.346;2023-04-03T06:08:51;13.83;;;9.80;;
6679;SDS011;3376;42.664;23.346;2023-04-03T06:11:18;19.87;;;11.03;;
6679;SDS011;3376;42.664;23.346;2023-04-03T06:13:46;16.87;;;9.50;;
6679;SDS011;3376;42.664;23.346;2023-04-03T06:16:13;15.03;;;10.03;;
6679;SDS011;3376;42.664;23.346;2023-04-03T06:18:41;17.60;;;10.83;;
6679;SDS011;3376;42.664;23.346;2023-04-03T06:21:08;17.77;;;10.97;;
6679;SDS011;3376;42.664;23.346;2023-04-03T06:23:36;20.10;;;9.83;;
6679;SDS011;3376;42.664;23.346;2023-04-03T06:26:03;16.60;;;10.07;;
6679;SDS011;3376;42.664;23.346;2023-04-03T06:28:30;16.80;;;10.93;;
6679;SDS011;3376;42.664;23.346;2023-04-03T06:30:57;17.87;;;10.97;;
6679;SDS011;3376;42.664;23.346;2023-04-03T06:33:24;15.17;;;10.50;;
6679;SDS011;3376;42.664;23.346;2023-04-03T06:35:55;17.03;;;10.63;;
6679;SDS011;3376;42.664;23.346;2023-04-03T06:38:22;19.07;;;10.33;;
6679;SDS011;3376;42.664;23.346;2023-04-03T06:40:51;14.73;;;10.53;;
6679;SDS011;3376;42.664;23.346;2023-04-03T06:43:18;14.47;;;11.27;;
6679;SDS011;3376;42.664;23.346;2023-04-03T06:45:45;20.37;;;12.37;;
6679;SDS011;3376;42.664;23.346;2023-04-03T06:48:12;19.07;;;12.73;;
6679;SDS011;3376;42.664;23.346;2023-04-03T06:50:39;21.33;;;14.10;;
6679;SDS011;3376;42.664;23.346;2023-04-03T06:53:06;17.23;;;13.60;;
6679;SDS011;3376;42.664;23.346;2023-04-03T06:55:33;20.90;;;15.27;;
6679;SDS011;3376;42.664;23.346;2023-04-03T06:58:01;25.23;;;15.67;;
6679;SDS011;3376;42.664;23.346;2023-04-03T07:00:28;31.43;;;15.47;;
6679;SDS011;3376;42.664;23.346;2023-04-03T07:02:55;21.83;;;14.23;;
6679;SDS011;3376;42.664;23.346;2023-04-03T07:05:22;21.13;;;14.90;;
6679;SDS011;3376;42.664;23.346;2023-04-03T07:07:49;17.93;;;14.40;;
6679;SDS011;3376;42.664;23.346;2023-04-03T07:10:16;23.67;;;13.67;;
6679;SDS011;3376;42.664;23.346;2023-04-03T07:12:43;25.73;;;14.17;;
6679;SDS011;3376;42.664;23.346;2023-04-03T07:15:11;21.73;;;13.63;;
6679;SDS011;3376;42.664;23.346;2023-04-03T07:17:39;18.03;;;12.20;;
6679;SDS011;3376;42.664;23.346;2023-04-03T07:20:07;13.17;;;11.60;;
6679;SDS011;3376;42.664;23.346;2023-04-03T07:22:34;17.00;;;11.50;;
6679;SDS011;3376;42.664;23.346;2023-04-03T07:25:01;15.70;;;10.97;;
6679;SDS011;3376;42.664;23.346;2023-04-03T07:27:28;14.43;;;9.40;;
6679;SDS011;3376;42.664;23.346;2023-04-03T07:29:55;11.47;;;9.07;;
6679;SDS011;3376;42.664;23.346;2023-04-03T07:32:23;12.67;;;8.87;;
6679;SDS011;3376;42.664;23.346;2023-04-03T07:34:50;13.70;;;10.07;;
6679;SDS011;3376;42.664;23.346;2023-04-03T07:37:17;10.50;;;9.03;;
6679;SDS011;3376;42.664;23.346;2023-04-03T07:39:44;17.93;;;9.27;;
6679;SDS011;3376;42.664;23.346;2023-04-03T07:42:11;10.13;;;8.43;;
6679;SDS011;3376;42.664;23.346;2023-04-03T07:44:38;8.77;;;7.90;;
6679;SDS011;3376;42.664;23.346;2023-04-03T07:47:05;13.47;;;8.27;;
6679;SDS011;3376;42.664;23.346;2023-04-03T07:49:34;11.37;;;9.03;;
6679;SDS011;3376;42.664;23.346;2023-04-03T07:52:03;15.70;;;12.37;;
6679;SDS011;3376;42.664;23.346;2023-04-03T07:54:30;17.27;;;11.67;;
6679;SDS011;3376;42.664;23.346;2023-04-03T07:56:57;17.27;;;11.63;;
6679;SDS011;3376;42.664;23.346;2023-04-03T07:59:24;19.43;;;12.67;;
6679;SDS011;3376;42.664;23.346;2023-04-03T08:01:51;20.27;;;13.73;;
6679;SDS011;3376;42.664;23.346;2023-04-03T08:04:17;20.73;;;17.77;;
6679;SDS011;3376;42.664;23.346;2023-04-03T08:06:46;24.77;;;19.00;;
6679;SDS011;3376;42.664;23.346;2023-04-03T08:09:13;36.20;;;22.07;;
6679;SDS011;3376;42.664;23.346;2023-04-03T08:11:41;36.03;;;23.70;;
6679;SDS011;3376;42.664;23.346;2023-04-03T08:14:09;30.27;;;22.70;;
6679;SDS011;3376;42.664;23.346;2023-04-03T08:16:40;27.87;;;22.13;;
6679;SDS011;3376;42.664;23.346;2023-04-03T08:19:08;30.40;;;19.67;;
6679;SDS011;3376;42.664;23.346;2023-04-03T08:21:35;25.37;;;18.97;;
6679;SDS011;3376;42.664;23.346;2023-04-03T08:24:04;24.73;;;20.00;;
6679;SDS011;3376;42.664;23.346;2023-04-03T08:26:31;25.73;;;17.83;;
6679;SDS011;3376;42.664;23.346;2023-04-03T08:28:58;20.63;;;18.33;;
6679;SDS011;3376;42.664;23.346;2023-04-03T08:31:27;23.03;;;17.97;;
6679;SDS011;3376;42.664;23.346;2023-04-03T08:33:54;29.03;;;17.97;;
6679;SDS011;3376;42.664;23.346;2023-04-03T08:36:23;45.77;;;19.20;;
6679;SDS011;3376;42.664;23.346;2023-04-03T08:38:51;21.53;;;18.43;;
6679;SDS011;3376;42.664;23.346;2023-04-03T08:41:24;20.80;;;18.63;;
6679;SDS011;3376;42.664;23.346;2023-04-03T08:43:58;26.53;;;19.50;;
6679;SDS011;3376;42.664;23.346;2023-04-03T08:46:33;31.47;;;17.73;;
6679;SDS011;3376;42.664;23.346;2023-04-03T08:49:10;18.73;;;16.50;;
6679;SDS011;3376;42.664;23.346;2023-04-03T08:51:40;21.90;;;16.27;;
6679;SDS011;3376;42.664;23.346;2023-04-03T08:54:15;22.73;;;16.27;;
6679;SDS011;3376;42.664;23.346;2023-04-03T08:56:52;21.30;;;16.23;;
6679;SDS011;3376;42.664;23.346;2023-04-03T08:59:22;22.70;;;15.10;;
6679;SDS011;3376;42.664;23.346;2023-04-03T09:01:54;22.13;;;14.03;;
6679;SDS011;3376;42.664;23.346;2023-04-03T09:04:22;14.50;;;13.10;;
6679;SDS011;3376;42.664;23.346;2023-04-03T09:06:49;18.83;;;13.17;;
6679;SDS011;3376;42.664;23.346;2023-04-03T09:09:24;15.20;;;13.20;;
6679;SDS011;3376;42.664;23.346;2023-04-03T09:12:04;20.50;;;13.27;;
6679;SDS011;3376;42.664;23.346;2023-04-03T09:14:38;16.90;;;13.80;;
6679;SDS011;3376;42.664;23.346;2023-04-03T09:17:12;17.03;;;14.30;;
6679;SDS011;3376;42.664;23.346;2023-04-03T09:19:45;26.63;;;17.07;;
6679;SDS011;3376;42.664;23.346;2023-04-03T09:22:21;12.87;;;11.63;;
6679;SDS011;3376;42.664;23.346;2023-04-03T09:24:52;16.63;;;11.97;;
6679;SDS011;3376;42.664;23.346;2023-04-03T09:27:26;14.97;;;11.03;;
6679;SDS011;3376;42.664;23.346;2023-04-03T09:29:53;15.63;;;12.10;;
6679;SDS011;3376;42.664;23.346;2023-04-03T09:32:25;15.23;;;9.77;;
6679;SDS011;3376;42.664;23.346;2023-04-03T09:34:53;14.93;;;10.83;;
6679;SDS011;3376;42.664;23.346;2023-04-03T09:37:36;11.37;;;9.93;;
6679;SDS011;3376;42.664;23.346;2023-04-03T09:40:05;16.00;;;10.90;;
6679;SDS011;3376;42.664;23.346;2023-04-03T09:42:55;12.13;;;9.97;;
6679;SDS011;3376;42.664;23.346;2023-04-03T09:45:24;13.87;;;7.87;;
6679;SDS011;3376;42.664;23.346;2023-04-03T09:48:03;11.80;;;7.20;;
6679;SDS011;3376;42.664;23.346;2023-04-03T09:50:33;12.37;;;8.30;;
6679;SDS011;3376;42.664;23.346;2023-04-03T09:53:04;8.00;;;7.13;;
6679;SDS011;3376;42.664;23.346;2023-04-03T09:55:32;7.93;;;7.20;;
6679;SDS011;3376;42.664;23.346;2023-04-03T09:58:23;4.40;;;4.00;;
6679;SDS011;3376;42.664;23.346;2023-04-03T10:00:54;4.50;;;4.20;;
6679;SDS011;3376;42.664;23.346;2023-04-03T10:03:23;3.77;;;3.50;;
6679;SDS011;3376;42.664;23.346;2023-04-03T10:05:52;4.90;;;4.30;;
6679;SDS011;3376;42.664;23.346;2023-04-03T10:08:21;7.77;;;7.10;;
6679;SDS011;3376;42.664;23.346;2023-04-03T10:11:05;10.50;;;9.10;;
6679;SDS011;3376;42.664;23.346;2023-04-03T10:13:36;15.17;;;10.60;;
6679;SDS011;3376;42.664;23.346;2023-04-03T10:16:17;14.87;;;10.20;;
6679;SDS011;3376;42.664;23.346;2023-04-03T10:18:47;10.03;;;8.37;;
6679;SDS011;3376;42.664;23.346;2023-04-03T10:21:20;12.33;;;8.07;;
6679;SDS011;3376;42.664;23.346;2023-04-03T10:24:02;8.57;;;7.87;;
6679;SDS011;3376;42.664;23.346;2023-04-03T10:26:39;9.27;;;7.37;;
6679;SDS011;3376;42.664;23.346;2023-04-03T10:29:18;9.97;;;7.57;;
6679;SDS011;3376;42.664;23.346;2023-04-03T10:31:57;9.17;;;6.00;;
6679;SDS011;3376;42.664;23.346;2023-04-03T10:34:39;6.23;;;5.63;;
6679;SDS011;3376;42.664;23.346;2023-04-03T10:37:10;14.27;;;6.10;;
6679;SDS011;3376;42.664;23.346;2023-04-03T10:39:49;7.30;;;5.00;;
6679;SDS011;3376;42.664;23.346;2023-04-03T10:42:25;7.17;;;4.23;;
6679;SDS011;3376;42.664;23.346;2023-04-03T10:45:07;3.57;;;3.27;;
6679;SDS011;3376;42.664;23.346;2023-04-03T10:47:46;3.60;;;3.40;;
6679;SDS011;3376;42.664;23.346;2023-04-03T10:50:26;3.60;;;3.40;;
6679;SDS011;3376;42.664;23.346;2023-04-03T10:53:02;4.53;;;3.53;;
6679;SDS011;3376;42.664;23.346;2023-04-03T10:55:37;3.40;;;3.20;;
6679;SDS011;3376;42.664;23.346;2023-04-03T11:00:46;3.73;;;3.53;;
6679;SDS011;3376;42.664;23.346;2023-04-03T11:03:17;2.97;;;2.87;;
6679;SDS011;3376;42.664;23.346;2023-04-03T11:05:56;3.43;;;3.17;;
6679;SDS011;3376;42.664;23.346;2023-04-03T11:08:28;2.47;;;2.27;;
6679;SDS011;3376;42.664;23.346;2023-04-03T11:11:04;3.17;;;2.37;;
6679;SDS011;3376;42.664;23.346;2023-04-03T11:13:35;2.43;;;2.33;;
6679;SDS011;3376;42.664;23.346;2023-04-03T11:16:09;3.57;;;2.70;;
6679;SDS011;3376;42.664;23.346;2023-04-03T11:18:44;2.37;;;2.27;;
6679;SDS011;3376;42.664;23.346;2023-04-03T11:21:17;3.57;;;2.67;;
6679;SDS011;3376;42.664;23.346;2023-04-03T11:23:48;2.53;;;1.90;;
6679;SDS011;3376;42.664;23.346;2023-04-03T11:26:18;2.23;;;2.13;;
6679;SDS011;3376;42.664;23.346;2023-04-03T11:28:46;3.00;;;2.83;;
6679;SDS011;3376;42.664;23.346;2023-04-03T11:31:26;2.97;;;2.80;;
6679;SDS011;3376;42.664;23.346;2023-04-03T11:34:05;2.57;;;2.47;;
6679;SDS011;3376;42.664;23.346;2023-04-03T11:36:42;2.13;;;2.03;;
6679;SDS011;3376;42.664;23.346;2023-04-03T11:39:16;2.57;;;2.47;;
6679;SDS011;3376;42.664;23.346;2023-04-03T11:41:48;2.97;;;2.60;;
6679;SDS011;3376;42.664;23.346;2023-04-03T11:44:29;2.57;;;2.37;;
6679;SDS011;3376;42.664;23.346;2023-04-03T11:47:02;2.60;;;2.40;;
6679;SDS011;3376;42.664;23.346;2023-04-03T11:55:45;2.63;;;2.53;;
6679;SDS011;3376;42.664;23.346;2023-04-03T11:58:19;2.10;;;2.10;;
6679;SDS011;3376;42.664;23.346;2023-04-03T12:06:43;2.73;;;2.60;;
6679;SDS011;3376;42.664;23.346;2023-04-03T12:09:25;2.63;;;2.53;;
6679;SDS011;3376;42.664;23.346;2023-04-03T12:11:54;3.10;;;2.80;;
6679;SDS011;3376;42.664;23.346;2023-04-03T12:14:22;2.80;;;2.70;;
6679;SDS011;3376;42.664;23.346;2023-04-03T12:16:52;3.00;;;2.80;;
6679;SDS011;3376;42.664;23.346;2023-04-03T12:19:36;2.43;;;2.33;;
6679;SDS011;3376;42.664;23.346;2023-04-03T12:22:09;2.57;;;2.47;;
6679;SDS011;3376;42.664;23.346;2023-04-03T12:24:39;2.43;;;2.33;;
6679;SDS011;3376;42.664;23.346;2023-04-03T12:30:06;2.50;;;2.27;;
6679;SDS011;3376;42.664;23.346;2023-04-03T12:32:46;2.53;;;2.43;;
6679;SDS011;3376;42.664;23.346;2023-04-03T12:35:26;2.10;;;2.00;;
6679;SDS011;3376;42.664;23.346;2023-04-03T12:40:58;5.40;;;5.10;;
6679;SDS011;3376;42.664;23.346;2023-04-03T12:43:42;2.33;;;2.23;;
6679;SDS011;3376;42.664;23.346;2023-04-03T12:46:17;2.93;;;2.60;;
6679;SDS011;3376;42.664;23.346;2023-04-03T12:48:47;2.90;;;2.80;;
6679;SDS011;3376;42.664;23.346;2023-04-03T12:51:18;3.93;;;2.97;;
6679;SDS011;3376;42.664;23.346;2023-04-03T12:53:48;4.93;;;3.33;;
6679;SDS011;3376;42.664;23.346;2023-04-03T12:56:18;3.33;;;3.20;;
6679;SDS011;3376;42.664;23.346;2023-04-03T12:58:47;3.47;;;3.20;;
6679;SDS011;3376;42.664;23.346;2023-04-03T13:01:15;4.07;;;3.77;;
6679;SDS011;3376;42.664;23.346;2023-04-03T13:03:44;6.13;;;4.13;;
6679;SDS011;3376;42.664;23.346;2023-04-03T13:06:14;4.30;;;4.00;;
6679;SDS011;3376;42.664;23.346;2023-04-03T13:08:49;3.67;;;3.47;;
6679;SDS011;3376;42.664;23.346;2023-04-03T13:11:17;3.87;;;3.67;;
6679;SDS011;3376;42.664;23.346;2023-04-03T13:13:56;3.77;;;3.57;;
6679;SDS011;3376;42.664;23.346;2023-04-03T13:16:24;3.60;;;3.40;;
6679;SDS011;3376;42.664;23.346;2023-04-03T13:18:52;4.47;;;4.27;;
6679;SDS011;3376;42.664;23.346;2023-04-03T13:21:22;4.57;;;4.37;;
6679;SDS011;3376;42.664;23.346;2023-04-03T13:23:52;4.17;;;3.97;;
6679;SDS011;3376;42.664;23.346;2023-04-03T13:26:22;3.77;;;3.60;;
6679;SDS011;3376;42.664;23.346;2023-04-03T13:28:52;4.70;;;4.50;;
6679;SDS011;3376;42.664;23.346;2023-04-03T13:31:22;4.17;;;3.97;;
6679;SDS011;3376;42.664;23.346;2023-04-03T13:33:53;4.33;;;4.13;;
6679;SDS011;3376;42.664;23.346;2023-04-03T13:36:24;4.90;;;4.63;;
6679;SDS011;3376;42.664;23.346;2023-04-03T13:39:01;5.33;;;5.07;;
6679;SDS011;3376;42.664;23.346;2023-04-03T13:41:33;5.43;;;4.93;;
6679;SDS011;3376;42.664;23.346;2023-04-03T13:47:00;5.37;;;5.07;;
6679;SDS011;3376;42.664;23.346;2023-04-03T13:49:44;4.43;;;4.23;;
6679;SDS011;3376;42.664;23.346;2023-04-03T13:52:26;4.80;;;4.37;;
6679;SDS011;3376;42.664;23.346;2023-04-03T13:54:55;4.83;;;4.63;;
6679;SDS011;3376;42.664;23.346;2023-04-03T13:57:24;4.20;;;4.03;;
6679;SDS011;3376;42.664;23.346;2023-04-03T13:59:52;4.87;;;4.57;;
6679;SDS011;3376;42.664;23.346;2023-04-03T14:02:21;5.30;;;5.00;;
6679;SDS011;3376;42.664;23.346;2023-04-03T14:04:56;4.63;;;4.33;;
6679;SDS011;3376;42.664;23.346;2023-04-03T14:07:28;4.37;;;4.07;;
6679;SDS011;3376;42.664;23.346;2023-04-03T14:09:56;5.70;;;5.43;;
6679;SDS011;3376;42.664;23.346;2023-04-03T14:12:24;4.80;;;4.47;;
6679;SDS011;3376;42.664;23.346;2023-04-03T14:14:53;4.80;;;4.50;;
6679;SDS011;3376;42.664;23.346;2023-04-03T14:17:22;4.70;;;4.50;;
6679;SDS011;3376;42.664;23.346;2023-04-03T14:19:51;4.87;;;4.47;;
6679;SDS011;3376;42.664;23.346;2023-04-03T14:22:20;4.70;;;4.50;;
6679;SDS011;3376;42.664;23.346;2023-04-03T14:24:50;6.30;;;5.70;;
6679;SDS011;3376;42.664;23.346;2023-04-03T14:27:18;5.03;;;4.83;;
6679;SDS011;3376;42.664;23.346;2023-04-03T14:29:47;4.77;;;4.53;;
6679;SDS011;3376;42.664;23.346;2023-04-03T14:32:16;5.63;;;5.07;;
6679;SDS011;3376;42.664;23.346;2023-04-03T14:34:44;5.00;;;4.70;;
6679;SDS011;3376;42.664;23.346;2023-04-03T14:37:11;5.33;;;4.90;;
6679;SDS011;3376;42.664;23.346;2023-04-03T14:39:39;5.10;;;4.90;;
6679;SDS011;3376;42.664;23.346;2023-04-03T14:42:11;5.50;;;5.20;;
6679;SDS011;3376;42.664;23.346;2023-04-03T14:44:39;5.40;;;5.20;;
6679;SDS011;3376;42.664;23.346;2023-04-03T14:47:09;5.90;;;5.60;;
6679;SDS011;3376;42.664;23.346;2023-04-03T14:49:36;5.50;;;5.20;;
6679;SDS011;3376;42.664;23.346;2023-04-03T14:52:04;5.30;;;5.00;;
6679;SDS011;3376;42.664;23.346;2023-04-03T14:54:30;5.83;;;5.27;;
6679;SDS011;3376;42.664;23.346;2023-04-03T14:56:58;4.77;;;4.47;;
6679;SDS011;3376;42.664;23.346;2023-04-03T14:59:27;5.77;;;5.30;;
6679;SDS011;3376;42.664;23.346;2023-04-03T15:01:55;5.10;;;4.90;;
6679;SDS011;3376;42.664;23.346;2023-04-03T15:04:22;4.87;;;4.67;;
6679;SDS011;3376;42.664;23.346;2023-04-03T15:06:50;5.20;;;5.00;;
6679;SDS011;3376;42.664;23.346;2023-04-03T15:09:19;4.53;;;4.33;;
6679;SDS011;3376;42.664;23.346;2023-04-03T15:11:47;5.10;;;4.80;;
6679;SDS011;3376;42.664;23.346;2023-04-03T15:14:15;4.10;;;3.80;;
6679;SDS011;3376;42.664;23.346;2023-04-03T15:16:43;3.80;;;3.70;;
6679;SDS011;3376;42.664;23.346;2023-04-03T15:19:10;3.80;;;3.60;;
6679;SDS011;3376;42.664;23.346;2023-04-03T15:21:37;4.10;;;3.90;;
6679;SDS011;3376;42.664;23.346;2023-04-03T15:24:04;3.60;;;3.40;;
6679;SDS011;3376;42.664;23.346;2023-04-03T15:26:31;3.27;;;3.17;;
6679;SDS011;3376;42.664;23.346;2023-04-03T15:28:58;3.30;;;3.20;;
6679;SDS011;3376;42.664;23.346;2023-04-03T15:31:25;3.43;;;3.23;;